Paducah, TX (79248)

4:37 AM CST on December 22, 2014 (GMT -0600)
RAWS MATADOR TX US | Change Station
CLOSE
Current Station
Personal Weather Station
Location: Cee Vee, TX
Elevation: 1899 ft
Nearby Weather Stations

Elev 1899 ft 34.13 °N, 100.42 °W | Updated 34 minutes ago

Clear
Clear
48 °F
Feels Like 44 °F
N
8
Wind Variable Wind from WNW
Gusts 12.0 mph

Today
High -- | Low -- °F
--% Chance of Precip.
Yesterday
High -- | Low -- °F
Precip. -- in
7:43 AM 5:36 PM
New Moon, 0% visible
Pressure 29.52 in
Visibility 10.0 miles
Clouds Clear
Windchill 44 °F
Dew Point 30 °F
Humidity 50%
Rainfall 0.00 in
Snow Depth Not available.
UV 0 out of 12
Pollen 9.00 out of 12
Air Quality Not available.
Flu Activity Not available.
METAR KCDS 220953Z AUTO 31011KT 10SM CLR 04/00 A2954 RMK AO2 SLP995 T00440000

More Conditions Fewer Conditions

Pressure 29.52 in
Visibility 10.0 miles
Clouds Clear
Windchill 44 °F
Dew Point 30 °F
Humidity 50%
Rainfall 0.00 in
Snow Depth Not available.
UV 0 out of 12
Pollen 9.00 out of 12
Air Quality Not available.
Flu Activity Not available.
METAR KCDS 220953Z AUTO 31011KT 10SM CLR 04/00 A2954 RMK AO2 SLP995 T00440000

More Conditions Fewer Conditions

10-Day Weather Forecast

Almanac

Astronomy

Dec. 22, 2014 Rise Set
Actual Time
Civil Twilight
Nautical Twilight
Astronomical Twilight
Moon
Length of Visible Light
Length of Day
Tomorrow will be .
, % of the Moon is Illuminated

Today's Extremes

State Highs State Lows

Community

WunderPhotos

Upload Photos

1,779,583 photos uploaded!

WunderBlogs® & News

Nearby

Air Quality

  Air Quality AQ Index Pollutant
Not available.

Snow Depth

Station Depth Elevation

Earthquake Activity

City Distance Mag. Time & Date
Minimum magnitude displayed is 2.5.

Coastal Water Temperatures

Place Temperature

Nearby Weather Stations